Kisbey, Canada
Current Conditions -  °F | °C
As of 11:00 PM on Wednesday 26 Nov 2014 (Local Time) from CYEN Reporting Station
Scattered Clouds Scattered Clouds  
Wind Chill: -30°   Ceiling: Unl
Heat Index: -13°   Visibility: 15mi
Dew Point: -18°   Wind: 8mph
Humidity: 77%   Direction: 110°ESE
Pressure: 30.38"   Gusts: NA
Location:  49.63°N, 102.67°W
Report Text: CYEN 270500Z 11007KT 15SM SCT230 M25/M28 A3038 RMK CI0 FROINSLP354
Loading
Personal Weather Stations






























Interactive Weather Map New forecast layout! Learn more

10-Day Weather Forecast

Advertisements
Track Severe Weather on mobile